createdAt,value
2022-10-23T00:00:20.246Z,5.99
2022-10-23T00:02:52.228Z,5.98
2022-10-23T00:05:20.510Z,5.95
2022-10-23T00:07:51.038Z,5.92
2022-10-23T00:10:18.250Z,5.92
2022-10-23T00:12:45.694Z,5.37
2022-10-23T00:15:12.764Z,5.97
2022-10-23T00:17:40.313Z,5.96
2022-10-23T00:20:08.206Z,5.95
2022-10-23T00:22:35.275Z,5.99
2022-10-23T00:25:02.281Z,6.02
2022-10-23T00:27:30.027Z,6.05
2022-10-23T00:29:56.985Z,6.07
2022-10-23T00:32:24.544Z,6.07
2022-10-23T00:34:51.733Z,6.06
2022-10-23T00:37:18.831Z,6.05
2022-10-23T00:39:45.798Z,6.03
2022-10-23T00:42:16.110Z,5.99
2022-10-23T00:44:43.963Z,5.99
2022-10-23T00:47:11.894Z,5.95
2022-10-23T00:49:42.038Z,5.93
2022-10-23T00:52:12.121Z,5.95
2022-10-23T00:54:43.707Z,5.95
2022-10-23T00:57:12.671Z,5.95
2022-10-23T00:59:39.909Z,5.95
2022-10-23T01:02:07.364Z,5.91
2022-10-23T01:04:35.058Z,5.83
2022-10-23T01:07:02.229Z,5.82
2022-10-23T01:09:37.898Z,5.78
2022-10-23T01:12:07.946Z,5.69
2022-10-23T01:14:43.970Z,5.64
2022-10-23T01:17:11.398Z,5.60
2022-10-23T01:19:42.985Z,5.54
2022-10-23T01:22:45.211Z,5.51
2022-10-23T01:25:27.860Z,5.40
2022-10-23T01:28:01.834Z,5.39
2022-10-23T01:30:29.685Z,5.40
2022-10-23T01:32:59.779Z,5.38
2022-10-23T01:35:26.764Z,5.33
2022-10-23T01:38:02.830Z,5.21
2022-10-23T01:40:33.071Z,5.10
2022-10-23T01:43:04.755Z,4.95
2022-10-23T01:45:37.400Z,4.83
2022-10-23T01:48:09.134Z,4.73
2022-10-23T01:50:38.188Z,4.63
2022-10-23T01:53:05.312Z,4.57
2022-10-23T01:55:33.124Z,4.49
2022-10-23T01:58:04.857Z,4.42
2022-10-23T02:00:40.019Z,4.36
2022-10-23T02:03:09.123Z,4.29
2022-10-23T02:05:39.379Z,4.24
2022-10-23T02:08:06.720Z,4.16
2022-10-23T02:10:45.158Z,4.13
2022-10-23T02:13:12.098Z,4.09
2022-10-23T02:15:45.428Z,4.05
2022-10-23T02:18:31.245Z,4.02
2022-10-23T02:21:08.049Z,3.98
2022-10-23T02:23:40.964Z,3.93
2022-10-23T02:26:10.650Z,3.90
2022-10-23T02:28:41.417Z,3.89
2022-10-23T02:31:12.882Z,3.87
2022-10-23T02:33:40.711Z,3.84
2022-10-23T02:36:07.873Z,3.82
2022-10-23T02:38:37.955Z,3.79
2022-10-23T02:41:12.850Z,3.79
2022-10-23T02:43:43.843Z,3.76
2022-10-23T02:46:25.496Z,3.73
2022-10-23T02:49:04.049Z,3.71
2022-10-23T02:51:40.877Z,3.69
2022-10-23T02:54:13.557Z,3.64
2022-10-23T02:56:45.009Z,3.63
2022-10-23T02:59:20.638Z,3.60
2022-10-23T03:01:51.115Z,3.58
2022-10-23T03:04:19.596Z,3.59
2022-10-23T03:06:49.512Z,3.57
2022-10-23T03:09:18.181Z,3.55
2022-10-23T03:11:45.429Z,3.51
2022-10-23T03:14:13.748Z,3.48
2022-10-23T03:16:40.759Z,3.47
2022-10-23T03:19:09.459Z,3.46
2022-10-23T03:21:37.117Z,3.44
2022-10-23T03:24:07.897Z,3.43
2022-10-23T03:26:40.373Z,3.41
2022-10-23T03:29:07.438Z,3.37
2022-10-23T03:31:40.687Z,3.34
2022-10-23T03:34:11.286Z,3.30
2022-10-23T03:36:40.616Z,3.27
2022-10-23T03:39:08.986Z,3.26
2022-10-23T03:41:35.906Z,3.24
2022-10-23T03:46:34.889Z,3.21
2022-10-23T03:49:01.949Z,3.18
2022-10-23T03:51:29.088Z,3.17
2022-10-23T03:53:57.769Z,3.14
2022-10-23T03:56:24.686Z,3.14
2022-10-23T03:58:51.696Z,3.12
2022-10-23T04:01:18.748Z,3.11
2022-10-23T04:03:46.473Z,3.10
2022-10-23T04:06:15.630Z,3.10
2022-10-23T04:08:44.069Z,3.10
2022-10-23T04:11:19.808Z,3.09
2022-10-23T04:13:46.952Z,3.07
2022-10-23T04:16:14.008Z,3.08
2022-10-23T04:18:41.854Z,3.10
2022-10-23T04:21:10.304Z,3.11
2022-10-23T04:23:38.272Z,3.13
2022-10-23T04:26:09.614Z,3.10
2022-10-23T04:28:36.585Z,3.12
2022-10-23T04:31:03.650Z,3.14
2022-10-23T04:33:30.797Z,3.15
2022-10-23T04:35:58.361Z,3.16
2022-10-23T04:38:26.294Z,3.22
2022-10-23T04:40:53.264Z,3.22
2022-10-23T04:43:22.249Z,3.24
2022-10-23T04:45:50.158Z,3.25
2022-10-23T04:48:17.206Z,3.31
2022-10-23T04:51:04.026Z,3.38
2022-10-23T04:53:49.790Z,3.43
2022-10-23T04:56:28.389Z,3.50
2022-10-23T05:01:39.650Z,3.58
2022-10-23T05:04:08.326Z,3.66
2022-10-23T05:06:52.735Z,3.78
2022-10-23T05:09:36.340Z,3.83
2022-10-23T05:12:17.254Z,3.89
2022-10-23T05:14:44.855Z,3.96
2022-10-23T05:17:17.544Z,4.03
2022-10-23T05:19:51.039Z,4.13
2022-10-23T05:22:18.571Z,4.19
2022-10-23T05:24:50.595Z,4.18
2022-10-23T05:27:21.959Z,4.29
2022-10-23T05:29:50.737Z,4.41
2022-10-23T05:34:48.611Z,4.53
2022-10-23T05:37:16.828Z,4.47
2022-10-23T05:39:45.320Z,4.42
2022-10-23T05:42:14.807Z,4.46
2022-10-23T05:44:42.494Z,4.53
2022-10-23T05:47:36.841Z,4.52
2022-10-23T05:50:15.920Z,4.46
2022-10-23T05:53:15.073Z,4.45
2022-10-23T05:56:09.080Z,4.46
2022-10-23T05:58:44.018Z,4.51
2022-10-23T06:01:26.155Z,4.52
2022-10-23T06:04:04.845Z,4.61
2022-10-23T06:06:50.135Z,4.63
2022-10-23T06:09:18.090Z,4.69
2022-10-23T06:11:47.407Z,4.69
2022-10-23T06:14:19.629Z,4.68
2022-10-23T06:16:49.029Z,4.75
2022-10-23T06:19:16.050Z,4.90
2022-10-23T06:21:43.895Z,4.96
2022-10-23T06:24:13.738Z,4.97
2022-10-23T06:26:54.901Z,5.08
2022-10-23T06:29:32.610Z,5.24
2022-10-23T06:32:00.988Z,5.36
2022-10-23T06:34:28.013Z,5.40
2022-10-23T06:36:55.110Z,5.48
2022-10-23T06:39:43.395Z,5.59
2022-10-23T06:42:15.512Z,5.66
2022-10-23T06:44:54.565Z,5.62
2022-10-23T06:47:51.594Z,5.53
2022-10-23T06:50:33.649Z,5.50
2022-10-23T06:53:06.485Z,5.58
2022-10-23T06:58:10.584Z,5.86
2022-10-23T07:00:53.038Z,5.87
2022-10-23T07:03:20.192Z,5.82
2022-10-23T07:05:50.064Z,5.80
2022-10-23T07:08:17.209Z,5.79
2022-10-23T07:10:48.092Z,5.79
2022-10-23T07:13:19.705Z,5.70
2022-10-23T07:16:11.264Z,5.75
2022-10-23T07:18:38.298Z,5.75
2022-10-23T07:21:20.372Z,5.67
2022-10-23T07:23:49.409Z,5.66
2022-10-23T07:26:17.183Z,5.68
2022-10-23T07:28:45.236Z,5.76
2022-10-23T07:31:14.434Z,5.82
2022-10-23T07:34:04.569Z,5.88
2022-10-23T07:36:32.153Z,5.84
2022-10-23T07:38:59.611Z,5.87
2022-10-23T07:41:27.573Z,5.85
2022-10-23T07:43:54.536Z,5.79
2022-10-23T07:46:21.452Z,5.78
2022-10-23T07:48:48.443Z,5.91
2022-10-23T07:51:16.871Z,5.99
2022-10-23T07:53:51.220Z,5.93
2022-10-23T07:56:36.673Z,5.89
2022-10-23T07:59:14.429Z,5.97
2022-10-23T08:01:47.371Z,5.67
2022-10-23T08:04:15.203Z,6.09
2022-10-23T08:06:53.828Z,6.13
2022-10-23T08:09:20.921Z,6.14
2022-10-23T08:11:48.367Z,6.15
2022-10-23T08:14:18.898Z,6.21
2022-10-23T08:16:47.365Z,6.29
2022-10-23T08:19:17.265Z,6.22
2022-10-23T08:21:45.847Z,6.20
2022-10-23T08:24:14.144Z,6.17
2022-10-23T08:26:43.771Z,6.17
2022-10-23T08:29:12.312Z,6.08
2022-10-23T08:31:40.116Z,6.15
2022-10-23T08:34:13.461Z,6.21
2022-10-23T08:36:42.902Z,6.23
2022-10-23T08:39:11.556Z,6.22
2022-10-23T08:41:43.949Z,6.26
2022-10-23T08:44:35.022Z,6.34
2022-10-23T08:47:10.893Z,6.25
2022-10-23T08:50:10.962Z,6.36
2022-10-23T08:52:41.879Z,6.41
2022-10-23T08:55:24.330Z,6.43
2022-10-23T08:58:00.883Z,6.36
2022-10-23T09:00:28.118Z,6.30
2022-10-23T09:02:55.553Z,6.38
2022-10-23T09:05:29.051Z,6.52
2022-10-23T09:08:04.767Z,6.66
2022-10-23T09:10:34.681Z,6.75
2022-10-23T09:13:10.109Z,6.85
2022-10-23T09:15:42.560Z,6.83
2022-10-23T09:18:13.994Z,6.92
2022-10-23T09:20:42.589Z,6.89
2022-10-23T09:23:15.664Z,6.82
2022-10-23T09:25:43.081Z,6.77
2022-10-23T09:28:19.906Z,6.69
2022-10-23T09:30:47.713Z,6.60
2022-10-23T09:33:25.197Z,6.58
2022-10-23T09:35:52.100Z,6.62
2022-10-23T09:38:29.996Z,6.55
2022-10-23T09:40:59.074Z,6.45
2022-10-23T09:43:27.689Z,6.43
2022-10-23T09:46:03.093Z,6.40
2022-10-23T09:48:30.762Z,6.44
2022-10-23T09:50:58.818Z,6.46
2022-10-23T09:53:25.732Z,6.51
2022-10-23T09:55:56.784Z,6.37
2022-10-23T09:58:29.679Z,6.25
2022-10-23T10:00:57.528Z,6.20
2022-10-23T10:03:48.506Z,6.18
2022-10-23T10:06:33.825Z,6.21
2022-10-23T10:09:03.861Z,6.28
2022-10-23T10:11:37.449Z,6.41
2022-10-23T10:14:20.331Z,6.36
2022-10-23T10:16:56.413Z,6.22
2022-10-23T10:19:41.987Z,6.12
2022-10-23T10:22:16.909Z,6.06
2022-10-23T10:24:52.510Z,6.06
2022-10-23T10:27:31.679Z,6.04
2022-10-23T10:29:58.615Z,5.97
2022-10-23T10:32:40.203Z,5.95
2022-10-23T10:35:19.008Z,5.93
2022-10-23T10:37:55.230Z,5.89
2022-10-23T10:40:30.497Z,5.87
2022-10-23T10:43:19.056Z,5.95
2022-10-23T10:45:49.881Z,5.95
2022-10-23T10:48:19.852Z,5.96
2022-10-23T10:51:07.636Z,5.98
2022-10-23T10:54:01.386Z,6.04
2022-10-23T10:56:31.490Z,6.07
2022-10-23T10:59:01.241Z,6.07
2022-10-23T11:01:35.414Z,5.94
2022-10-23T11:04:02.481Z,5.90
2022-10-23T11:06:31.036Z,5.94
2022-10-23T11:09:19.395Z,5.93
2022-10-23T11:11:48.808Z,5.91
2022-10-23T11:14:16.973Z,5.97
2022-10-23T11:16:46.967Z,5.97
2022-10-23T11:19:14.448Z,6.00
2022-10-23T11:22:07.839Z,6.01
2022-10-23T11:24:55.794Z,5.95
2022-10-23T11:27:36.109Z,5.91
2022-10-23T11:30:24.352Z,5.86
2022-10-23T11:33:10.138Z,5.88
2022-10-23T11:35:40.142Z,5.95
2022-10-23T11:38:13.300Z,5.93
2022-10-23T11:40:48.254Z,5.87
2022-10-23T11:43:26.050Z,5.78
2022-10-23T11:45:53.016Z,5.77
2022-10-23T11:48:21.509Z,5.73
2022-10-23T11:50:48.757Z,5.76
2022-10-23T11:53:26.965Z,5.77
2022-10-23T11:56:20.209Z,5.68
2022-10-23T11:58:48.987Z,5.66
2022-10-23T12:01:26.261Z,5.68
2022-10-23T12:04:02.393Z,5.78
2022-10-23T12:06:38.380Z,5.78
2022-10-23T12:09:07.034Z,5.77
2022-10-23T12:11:48.259Z,5.75
2022-10-23T12:14:29.024Z,5.70
2022-10-23T12:16:55.975Z,5.70
2022-10-23T12:19:24.880Z,5.72
2022-10-23T12:21:53.140Z,5.66
2022-10-23T12:24:40.013Z,5.66
2022-10-23T12:27:06.989Z,5.68
2022-10-23T12:29:53.259Z,5.70
2022-10-23T12:32:47.042Z,5.69
2022-10-23T12:35:24.753Z,5.87
2022-10-23T12:38:06.729Z,5.96
2022-10-23T12:40:33.891Z,6.05
2022-10-23T12:43:01.492Z,6.09
2022-10-23T12:45:36.785Z,6.09
2022-10-23T12:48:03.836Z,6.01
2022-10-23T12:50:31.674Z,5.97
2022-10-23T12:53:01.227Z,5.91
2022-10-23T12:55:52.758Z,5.82
2022-10-23T12:58:24.037Z,5.76
2022-10-23T13:00:54.952Z,5.74
2022-10-23T13:03:24.173Z,5.77
2022-10-23T13:05:52.648Z,5.80
2022-10-23T13:08:20.789Z,5.83
2022-10-23T13:11:10.055Z,5.85
2022-10-23T13:13:40.888Z,5.91
2022-10-23T13:16:15.044Z,5.93
2022-10-23T13:18:42.295Z,5.93
2022-10-23T13:21:16.244Z,5.93
2022-10-23T13:23:43.921Z,5.95
2022-10-23T13:26:19.919Z,5.95
2022-10-23T13:28:47.184Z,5.95
2022-10-23T13:31:25.016Z,6.00
2022-10-23T13:34:12.565Z,6.02
2022-10-23T13:36:53.264Z,6.07
2022-10-23T13:39:24.781Z,6.12
2022-10-23T13:41:51.985Z,6.07
2022-10-23T13:44:20.404Z,6.02
2022-10-23T13:46:48.543Z,6.03
2022-10-23T13:49:16.316Z,6.04
2022-10-23T13:51:48.776Z,5.55
2022-10-23T13:54:17.605Z,6.06
2022-10-23T13:56:44.953Z,6.05
2022-10-23T13:59:12.393Z,6.04
2022-10-23T14:01:40.071Z,5.99
2022-10-23T14:04:07.124Z,5.97
2022-10-23T14:06:34.517Z,5.99
2022-10-23T14:09:01.581Z,5.95
2022-10-23T14:11:28.523Z,5.91
2022-10-23T14:13:55.524Z,5.94
2022-10-23T14:16:23.520Z,6.01
2022-10-23T14:18:50.538Z,6.09
2022-10-23T14:21:20.001Z,6.15
2022-10-23T14:23:47.673Z,6.21
2022-10-23T14:26:16.108Z,6.26
2022-10-23T14:28:43.974Z,6.27
2022-10-23T14:31:12.100Z,6.25
2022-10-23T14:33:39.709Z,6.31
2022-10-23T14:36:06.997Z,6.28
2022-10-23T14:38:34.241Z,6.27
2022-10-23T14:41:01.416Z,6.27
2022-10-23T14:43:28.390Z,6.30
2022-10-23T14:45:55.337Z,6.26
2022-10-23T14:48:22.271Z,6.27
2022-10-23T14:50:49.646Z,6.29
2022-10-23T14:53:17.124Z,6.34
2022-10-23T14:55:44.045Z,6.37
2022-10-23T14:58:11.025Z,6.40
2022-10-23T15:00:39.544Z,6.39
2022-10-23T15:03:06.528Z,6.39
2022-10-23T15:05:33.549Z,6.43
2022-10-23T15:08:01.787Z,6.48
2022-10-23T15:10:28.860Z,6.50
2022-10-23T15:12:55.745Z,6.48
2022-10-23T15:15:22.913Z,6.46
2022-10-23T15:17:49.841Z,6.47
2022-10-23T15:20:16.843Z,6.48
2022-10-23T15:22:44.167Z,6.48
2022-10-23T15:25:14.242Z,6.45
2022-10-23T15:27:43.963Z,6.48
2022-10-23T15:30:11.524Z,6.47
2022-10-23T15:32:38.504Z,6.43
2022-10-23T15:35:05.483Z,6.44
2022-10-23T15:37:32.414Z,6.48
2022-10-23T15:40:01.409Z,6.54
2022-10-23T15:42:30.351Z,6.50
2022-10-23T15:44:57.309Z,6.47
2022-10-23T15:47:24.251Z,6.43
2022-10-23T15:49:51.202Z,6.44
2022-10-23T15:52:18.162Z,6.50
2022-10-23T15:54:45.373Z,6.52
2022-10-23T15:57:12.276Z,6.52
2022-10-23T15:59:39.307Z,6.50
2022-10-23T16:02:06.325Z,6.54
2022-10-23T16:04:34.273Z,6.57
2022-10-23T16:07:01.170Z,6.63
2022-10-23T16:09:28.164Z,6.65
2022-10-23T16:11:55.151Z,6.63
2022-10-23T16:14:22.087Z,6.64
2022-10-23T16:16:49.032Z,6.66
2022-10-23T16:19:16.077Z,6.63
2022-10-23T16:21:43.082Z,6.64
2022-10-23T16:24:11.095Z,6.67
2022-10-23T16:26:38.567Z,6.73
2022-10-23T16:29:07.075Z,6.74
2022-10-23T16:31:34.212Z,6.80
2022-10-23T16:34:02.032Z,6.83
2022-10-23T16:36:29.487Z,6.84
2022-10-23T16:39:17.485Z,6.86
2022-10-23T16:42:02.994Z,6.94
2022-10-23T16:47:24.292Z,6.95
2022-10-23T16:49:51.255Z,6.95
2022-10-23T16:52:18.211Z,6.99
2022-10-23T16:54:45.244Z,7.06
2022-10-23T16:57:12.220Z,7.13
2022-10-23T16:59:39.231Z,7.18
2022-10-23T17:02:06.289Z,7.22
2022-10-23T17:04:33.509Z,7.28
2022-10-23T17:07:00.576Z,7.33
2022-10-23T17:09:31.352Z,7.32
2022-10-23T17:11:59.101Z,7.31
2022-10-23T17:14:29.276Z,7.33
2022-10-23T17:17:02.718Z,7.35
2022-10-23T17:19:47.065Z,7.35
2022-10-23T17:22:14.419Z,7.37
2022-10-23T17:24:43.539Z,7.37
2022-10-23T17:27:12.236Z,7.38
2022-10-23T17:29:39.177Z,7.37
2022-10-23T17:32:06.359Z,7.38
2022-10-23T17:34:33.371Z,7.35
2022-10-23T17:37:00.532Z,7.34
2022-10-23T17:39:28.735Z,7.32
2022-10-23T17:41:56.072Z,7.30
2022-10-23T17:44:23.235Z,7.32
2022-10-23T17:46:53.378Z,7.33
2022-10-23T17:49:20.867Z,7.33
2022-10-23T17:51:50.665Z,7.31
2022-10-23T17:54:17.646Z,7.31
2022-10-23T17:56:45.388Z,7.35
2022-10-23T17:59:14.031Z,7.36
2022-10-23T18:01:44.126Z,7.37
2022-10-23T18:04:11.223Z,7.40
2022-10-23T18:06:42.857Z,7.42
2022-10-23T18:09:10.613Z,7.43
2022-10-23T18:11:40.653Z,7.44
2022-10-23T18:14:11.074Z,7.45
2022-10-23T18:16:38.548Z,7.46
2022-10-23T18:19:05.582Z,7.50
2022-10-23T18:21:32.593Z,7.47
2022-10-23T18:24:00.454Z,7.47
2022-10-23T18:26:30.037Z,7.45
2022-10-23T18:28:58.444Z,7.44
2022-10-23T18:31:27.184Z,7.43
2022-10-23T18:33:58.562Z,7.43
2022-10-23T18:36:27.189Z,7.46
2022-10-23T18:41:23.888Z,7.52
2022-10-23T18:43:51.837Z,7.52
2022-10-23T18:46:19.264Z,7.53
2022-10-23T18:48:46.697Z,7.55
2022-10-23T18:51:15.835Z,7.57
2022-10-23T18:53:46.807Z,7.56
2022-10-23T18:56:14.652Z,7.58
2022-10-23T18:58:41.685Z,7.59
2022-10-23T19:01:08.768Z,7.60
2022-10-23T19:03:35.797Z,7.59
2022-10-23T19:06:02.797Z,7.60
2022-10-23T19:08:29.813Z,7.61
2022-10-23T19:10:57.762Z,7.63
2022-10-23T19:13:24.663Z,7.62
2022-10-23T19:15:51.654Z,7.62
2022-10-23T19:18:18.697Z,7.65
2022-10-23T19:20:45.889Z,7.65
2022-10-23T19:23:15.243Z,7.62
2022-10-23T19:25:45.450Z,7.61
2022-10-23T19:28:12.879Z,7.63
2022-10-23T19:30:40.119Z,7.64
2022-10-23T19:33:07.101Z,7.66
2022-10-23T19:35:34.127Z,7.67
2022-10-23T19:38:01.338Z,7.66
2022-10-23T19:40:28.401Z,7.65
2022-10-23T19:42:55.475Z,7.66
2022-10-23T19:45:22.980Z,7.67
2022-10-23T19:47:50.026Z,7.70
2022-10-23T19:50:17.006Z,7.68
2022-10-23T19:52:43.958Z,7.69
2022-10-23T19:55:10.876Z,7.73
2022-10-23T19:57:38.598Z,7.72
2022-10-23T20:00:06.965Z,7.71
2022-10-23T20:02:37.164Z,7.70
2022-10-23T20:05:07.938Z,7.68
2022-10-23T20:07:36.070Z,7.69
2022-10-23T20:12:31.735Z,7.72
2022-10-23T20:14:58.854Z,7.74
2022-10-23T20:17:25.842Z,7.21
2022-10-23T20:19:52.934Z,7.77
2022-10-23T20:22:20.485Z,7.78
2022-10-23T20:24:47.571Z,7.77
2022-10-23T20:27:14.954Z,7.79
2022-10-23T20:29:42.625Z,7.77
2022-10-23T20:32:09.629Z,7.76
2022-10-23T20:34:36.539Z,7.77
2022-10-23T20:37:03.689Z,7.78
2022-10-23T20:39:33.457Z,7.74
2022-10-23T20:42:00.559Z,7.75
2022-10-23T20:44:27.541Z,7.75
2022-10-23T20:46:54.882Z,7.75
2022-10-23T20:49:22.095Z,7.74
2022-10-23T20:51:55.783Z,7.77
2022-10-23T20:54:24.286Z,7.75
2022-10-23T20:56:51.265Z,7.75
2022-10-23T20:59:18.956Z,7.73
2022-10-23T21:01:49.650Z,7.73
2022-10-23T21:04:18.221Z,7.73
2022-10-23T21:07:08.382Z,7.51
2022-10-23T21:09:32.409Z,7.72
2022-10-23T21:11:59.315Z,7.65
2022-10-23T21:14:26.328Z,7.67
2022-10-23T21:16:53.339Z,7.68
2022-10-23T21:19:20.258Z,7.66
2022-10-23T21:21:47.191Z,7.62
2022-10-23T21:24:16.586Z,7.60
2022-10-23T21:26:44.692Z,7.57
2022-10-23T21:29:20.498Z,7.55
2022-10-23T21:32:01.622Z,7.56
2022-10-23T21:34:29.158Z,7.59
2022-10-23T21:37:13.362Z,7.62
2022-10-23T21:39:41.751Z,7.63
2022-10-23T21:42:08.776Z,7.63
2022-10-23T21:44:35.781Z,7.66
2022-10-23T21:47:02.779Z,7.63
2022-10-23T21:49:29.899Z,7.62
2022-10-23T21:51:56.796Z,7.60
2022-10-23T21:54:23.771Z,7.57
2022-10-23T21:56:51.891Z,7.55
2022-10-23T21:59:24.413Z,7.52
2022-10-23T22:01:52.252Z,7.49
2022-10-23T22:04:20.025Z,7.45
2022-10-23T22:06:47.869Z,7.41
2022-10-23T22:09:16.398Z,7.09
2022-10-23T22:11:43.443Z,7.37
2022-10-23T22:14:10.588Z,7.35
2022-10-23T22:16:37.529Z,7.34
2022-10-23T22:19:04.477Z,7.33
2022-10-23T22:21:31.539Z,7.33
2022-10-23T22:23:59.593Z,7.33
2022-10-23T22:26:26.611Z,7.31
2022-10-23T22:28:54.555Z,7.31
2022-10-23T22:31:22.843Z,7.30
2022-10-23T22:33:49.938Z,7.29
2022-10-23T22:36:16.862Z,7.26
2022-10-23T22:38:44.172Z,7.27
2022-10-23T22:41:11.221Z,7.22
2022-10-23T22:43:38.276Z,7.19
2022-10-23T22:46:06.538Z,7.17
2022-10-23T22:48:34.052Z,7.16
2022-10-23T22:51:01.075Z,7.16
2022-10-23T22:53:28.148Z,7.14
2022-10-23T22:55:55.547Z,7.13
2022-10-23T22:58:23.364Z,7.13
2022-10-23T23:00:51.300Z,7.13
2022-10-23T23:03:18.322Z,7.15
2022-10-23T23:05:46.917Z,7.11
2022-10-23T23:08:14.763Z,7.11
2022-10-23T23:10:41.762Z,7.08
2022-10-23T23:13:08.775Z,7.08
2022-10-23T23:15:44.797Z,7.08
2022-10-23T23:18:11.758Z,7.08
2022-10-23T23:20:38.690Z,7.10
2022-10-23T23:23:05.655Z,7.13
2022-10-23T23:25:32.627Z,7.14
2022-10-23T23:27:59.662Z,7.12
2022-10-23T23:30:26.737Z,7.11
2022-10-23T23:32:53.792Z,7.09
2022-10-23T23:35:20.874Z,7.09
2022-10-23T23:37:48.025Z,7.06
2022-10-23T23:40:14.958Z,7.03
2022-10-23T23:42:42.040Z,7.06
2022-10-23T23:45:14.667Z,7.09
2022-10-23T23:47:42.792Z,7.08
2022-10-23T23:50:11.723Z,7.09
2022-10-23T23:52:38.913Z,7.08
2022-10-23T23:55:06.190Z,7.06
2022-10-23T23:57:33.207Z,7.05
